sensor_id;sensor_type;location;lat;lon;timestamp;temperature;humidity
49132;DHT22;35149;51.196;6.204;2023-11-21T00:01:21;11.60;77.70
49132;DHT22;35149;51.196;6.204;2023-11-21T00:03:50;11.70;77.70
49132;DHT22;35149;51.196;6.204;2023-11-21T00:06:17;11.70;77.70
49132;DHT22;35149;51.196;6.204;2023-11-21T00:08:44;11.70;77.60
49132;DHT22;35149;51.196;6.204;2023-11-21T00:11:11;11.80;77.60
49132;DHT22;35149;51.196;6.204;2023-11-21T00:13:38;11.80;77.60
49132;DHT22;35149;51.196;6.204;2023-11-21T00:16:05;11.80;77.50
49132;DHT22;35149;51.196;6.204;2023-11-21T00:18:34;11.80;77.50
49132;DHT22;35149;51.196;6.204;2023-11-21T00:21:00;11.80;77.50
49132;DHT22;35149;51.196;6.204;2023-11-21T00:23:27;11.90;77.40
49132;DHT22;35149;51.196;6.204;2023-11-21T00:25:54;11.90;77.30
49132;DHT22;35149;51.196;6.204;2023-11-21T00:28:20;11.90;77.20
49132;DHT22;35149;51.196;6.204;2023-11-21T00:30:47;11.90;77.20
49132;DHT22;35149;51.196;6.204;2023-11-21T00:33:16;11.90;77.20
49132;DHT22;35149;51.196;6.204;2023-11-21T00:35:43;11.90;77.20
49132;DHT22;35149;51.196;6.204;2023-11-21T00:38:10;11.90;77.20
49132;DHT22;35149;51.196;6.204;2023-11-21T00:40:37;11.90;77.30
49132;DHT22;35149;51.196;6.204;2023-11-21T00:43:04;11.90;77.30
49132;DHT22;35149;51.196;6.204;2023-11-21T00:45:35;11.90;77.20
49132;DHT22;35149;51.196;6.204;2023-11-21T00:48:03;11.90;77.10
49132;DHT22;35149;51.196;6.204;2023-11-21T00:50:31;11.80;77.00
49132;DHT22;35149;51.196;6.204;2023-11-21T00:52:59;11.80;77.20
49132;DHT22;35149;51.196;6.204;2023-11-21T00:55:28;11.80;77.20
49132;DHT22;35149;51.196;6.204;2023-11-21T00:57:56;11.90;77.40
49132;DHT22;35149;51.196;6.204;2023-11-21T01:00:23;11.90;77.50
49132;DHT22;35149;51.196;6.204;2023-11-21T01:02:50;11.90;77.50
49132;DHT22;35149;51.196;6.204;2023-11-21T01:05:17;11.80;77.50
49132;DHT22;35149;51.196;6.204;2023-11-21T01:07:45;11.90;77.60
49132;DHT22;35149;51.196;6.204;2023-11-21T01:10:12;11.90;77.60
49132;DHT22;35149;51.196;6.204;2023-11-21T01:12:41;11.90;77.60
49132;DHT22;35149;51.196;6.204;2023-11-21T01:15:08;11.90;77.60
49132;DHT22;35149;51.196;6.204;2023-11-21T01:17:35;11.90;77.60
49132;DHT22;35149;51.196;6.204;2023-11-21T01:20:05;11.90;77.60
49132;DHT22;35149;51.196;6.204;2023-11-21T01:22:38;11.90;77.60
49132;DHT22;35149;51.196;6.204;2023-11-21T01:25:05;11.90;77.60
49132;DHT22;35149;51.196;6.204;2023-11-21T01:27:34;11.90;77.60
49132;DHT22;35149;51.196;6.204;2023-11-21T01:30:02;11.90;77.60
49132;DHT22;35149;51.196;6.204;2023-11-21T01:32:29;11.90;77.50
49132;DHT22;35149;51.196;6.204;2023-11-21T01:34:56;11.90;77.50
49132;DHT22;35149;51.196;6.204;2023-11-21T01:37:22;12.00;77.50
49132;DHT22;35149;51.196;6.204;2023-11-21T01:39:49;11.90;78.10
49132;DHT22;35149;51.196;6.204;2023-11-21T01:42:16;12.00;77.40
49132;DHT22;35149;51.196;6.204;2023-11-21T01:44:46;11.90;77.30
49132;DHT22;35149;51.196;6.204;2023-11-21T01:47:13;12.00;77.30
49132;DHT22;35149;51.196;6.204;2023-11-21T01:49:44;12.00;77.40
49132;DHT22;35149;51.196;6.204;2023-11-21T01:52:12;12.00;77.40
49132;DHT22;35149;51.196;6.204;2023-11-21T01:54:39;12.00;77.30
49132;DHT22;35149;51.196;6.204;2023-11-21T01:57:06;12.00;77.30
49132;DHT22;35149;51.196;6.204;2023-11-21T01:59:37;12.00;77.90
49132;DHT22;35149;51.196;6.204;2023-11-21T02:02:08;12.00;77.20
49132;DHT22;35149;51.196;6.204;2023-11-21T02:04:37;11.90;77.00
49132;DHT22;35149;51.196;6.204;2023-11-21T02:07:06;11.90;77.00
49132;DHT22;35149;51.196;6.204;2023-11-21T02:09:34;11.90;77.00
49132;DHT22;35149;51.196;6.204;2023-11-21T02:12:03;11.90;77.20
49132;DHT22;35149;51.196;6.204;2023-11-21T02:14:30;11.90;77.20
49132;DHT22;35149;51.196;6.204;2023-11-21T02:16:57;11.90;77.20
49132;DHT22;35149;51.196;6.204;2023-11-21T02:19:24;11.90;77.30
49132;DHT22;35149;51.196;6.204;2023-11-21T02:21:57;11.90;77.30
49132;DHT22;35149;51.196;6.204;2023-11-21T02:24:30;11.90;77.30
49132;DHT22;35149;51.196;6.204;2023-11-21T02:26:57;11.90;77.30
49132;DHT22;35149;51.196;6.204;2023-11-21T02:29:24;11.90;77.30
49132;DHT22;35149;51.196;6.204;2023-11-21T02:31:55;11.90;77.30
49132;DHT22;35149;51.196;6.204;2023-11-21T02:34:23;11.90;77.30
49132;DHT22;35149;51.196;6.204;2023-11-21T02:36:51;11.90;77.00
49132;DHT22;35149;51.196;6.204;2023-11-21T02:39:18;11.90;77.70
49132;DHT22;35149;51.196;6.204;2023-11-21T02:41:48;11.90;77.00
49132;DHT22;35149;51.196;6.204;2023-11-21T02:44:15;11.90;77.20
49132;DHT22;35149;51.196;6.204;2023-11-21T02:46:42;11.90;77.30
49132;DHT22;35149;51.196;6.204;2023-11-21T02:49:09;11.90;77.40
49132;DHT22;35149;51.196;6.204;2023-11-21T02:51:36;11.90;77.40
49132;DHT22;35149;51.196;6.204;2023-11-21T02:54:06;11.90;77.40
49132;DHT22;35149;51.196;6.204;2023-11-21T02:56:34;11.90;77.40
49132;DHT22;35149;51.196;6.204;2023-11-21T02:59:02;11.90;77.50
49132;DHT22;35149;51.196;6.204;2023-11-21T03:01:31;11.90;77.50
49132;DHT22;35149;51.196;6.204;2023-11-21T03:03:58;11.90;77.60
49132;DHT22;35149;51.196;6.204;2023-11-21T03:06:25;11.90;77.60
49132;DHT22;35149;51.196;6.204;2023-11-21T03:08:52;11.90;77.70
49132;DHT22;35149;51.196;6.204;2023-11-21T03:11:18;11.90;77.80
49132;DHT22;35149;51.196;6.204;2023-11-21T03:13:45;12.00;77.80
49132;DHT22;35149;51.196;6.204;2023-11-21T03:16:12;12.00;78.40
49132;DHT22;35149;51.196;6.204;2023-11-21T03:18:39;12.00;77.70
49132;DHT22;35149;51.196;6.204;2023-11-21T03:21:07;12.00;77.70
49132;DHT22;35149;51.196;6.204;2023-11-21T03:23:37;12.00;77.70
49132;DHT22;35149;51.196;6.204;2023-11-21T03:26:05;12.00;77.60
49132;DHT22;35149;51.196;6.204;2023-11-21T03:28:35;12.00;77.70
49132;DHT22;35149;51.196;6.204;2023-11-21T03:31:05;12.00;77.70
49132;DHT22;35149;51.196;6.204;2023-11-21T03:33:32;12.00;77.60
49132;DHT22;35149;51.196;6.204;2023-11-21T03:36:02;12.10;77.60
49132;DHT22;35149;51.196;6.204;2023-11-21T03:38:30;12.00;77.60
49132;DHT22;35149;51.196;6.204;2023-11-21T03:40:56;12.00;77.60
49132;DHT22;35149;51.196;6.204;2023-11-21T03:43:23;12.10;77.60
49132;DHT22;35149;51.196;6.204;2023-11-21T03:45:51;12.10;77.60
49132;DHT22;35149;51.196;6.204;2023-11-21T03:48:17;12.10;77.60
49132;DHT22;35149;51.196;6.204;2023-11-21T03:50:44;12.10;77.50
49132;DHT22;35149;51.196;6.204;2023-11-21T03:53:11;12.10;77.40
49132;DHT22;35149;51.196;6.204;2023-11-21T03:55:37;12.10;77.50
49132;DHT22;35149;51.196;6.204;2023-11-21T03:58:04;12.00;77.50
49132;DHT22;35149;51.196;6.204;2023-11-21T04:00:31;12.10;77.60
49132;DHT22;35149;51.196;6.204;2023-11-21T04:02:58;12.10;77.50
49132;DHT22;35149;51.196;6.204;2023-11-21T04:05:27;12.10;77.60
49132;DHT22;35149;51.196;6.204;2023-11-21T04:07:55;12.00;77.50
49132;DHT22;35149;51.196;6.204;2023-11-21T04:10:22;12.00;77.40
49132;DHT22;35149;51.196;6.204;2023-11-21T04:12:49;12.00;77.40
49132;DHT22;35149;51.196;6.204;2023-11-21T04:15:15;12.00;77.50
49132;DHT22;35149;51.196;6.204;2023-11-21T04:17:42;12.00;77.60
49132;DHT22;35149;51.196;6.204;2023-11-21T04:20:11;12.00;77.70
49132;DHT22;35149;51.196;6.204;2023-11-21T04:22:39;12.00;77.70
49132;DHT22;35149;51.196;6.204;2023-11-21T04:25:11;12.00;77.60
49132;DHT22;35149;51.196;6.204;2023-11-21T04:27:41;11.90;77.50
49132;DHT22;35149;51.196;6.204;2023-11-21T04:30:11;12.00;77.70
49132;DHT22;35149;51.196;6.204;2023-11-21T04:32:40;12.00;77.70
49132;DHT22;35149;51.196;6.204;2023-11-21T04:35:08;12.00;77.70
49132;DHT22;35149;51.196;6.204;2023-11-21T04:37:35;12.00;77.80
49132;DHT22;35149;51.196;6.204;2023-11-21T04:40:03;12.00;77.80
49132;DHT22;35149;51.196;6.204;2023-11-21T04:42:35;12.00;77.80
49132;DHT22;35149;51.196;6.204;2023-11-21T04:45:05;12.00;77.70
49132;DHT22;35149;51.196;6.204;2023-11-21T04:47:37;12.00;77.60
49132;DHT22;35149;51.196;6.204;2023-11-21T04:50:05;12.00;77.60
49132;DHT22;35149;51.196;6.204;2023-11-21T04:52:32;12.00;77.60
49132;DHT22;35149;51.196;6.204;2023-11-21T04:54:59;12.00;77.60
49132;DHT22;35149;51.196;6.204;2023-11-21T04:57:28;12.00;77.60
49132;DHT22;35149;51.196;6.204;2023-11-21T04:59:57;12.10;77.60
49132;DHT22;35149;51.196;6.204;2023-11-21T05:02:24;12.00;77.60
49132;DHT22;35149;51.196;6.204;2023-11-21T05:05:02;12.00;77.60
49132;DHT22;35149;51.196;6.204;2023-11-21T05:07:29;12.00;77.70
49132;DHT22;35149;51.196;6.204;2023-11-21T05:09:58;12.00;77.80
49132;DHT22;35149;51.196;6.204;2023-11-21T05:12:25;12.00;77.70
49132;DHT22;35149;51.196;6.204;2023-11-21T05:14:54;12.00;77.70
49132;DHT22;35149;51.196;6.204;2023-11-21T05:17:23;12.00;77.80
49132;DHT22;35149;51.196;6.204;2023-11-21T05:19:50;12.00;77.80
49132;DHT22;35149;51.196;6.204;2023-11-21T05:22:17;12.00;77.80
49132;DHT22;35149;51.196;6.204;2023-11-21T05:24:44;12.00;77.70
49132;DHT22;35149;51.196;6.204;2023-11-21T05:27:10;12.00;77.70
49132;DHT22;35149;51.196;6.204;2023-11-21T05:29:37;12.00;77.70
49132;DHT22;35149;51.196;6.204;2023-11-21T05:32:04;12.00;77.70
49132;DHT22;35149;51.196;6.204;2023-11-21T05:34:32;12.00;77.80
49132;DHT22;35149;51.196;6.204;2023-11-21T05:36:59;12.00;77.90
49132;DHT22;35149;51.196;6.204;2023-11-21T05:39:25;12.00;78.00
49132;DHT22;35149;51.196;6.204;2023-11-21T05:41:52;12.00;78.00
49132;DHT22;35149;51.196;6.204;2023-11-21T05:44:19;12.00;78.00
49132;DHT22;35149;51.196;6.204;2023-11-21T05:46:45;12.00;78.10
49132;DHT22;35149;51.196;6.204;2023-11-21T05:49:12;12.00;78.00
49132;DHT22;35149;51.196;6.204;2023-11-21T05:51:39;12.00;78.00
49132;DHT22;35149;51.196;6.204;2023-11-21T05:54:06;12.00;77.90
49132;DHT22;35149;51.196;6.204;2023-11-21T05:56:34;12.00;77.90
49132;DHT22;35149;51.196;6.204;2023-11-21T05:59:00;11.90;77.80
49132;DHT22;35149;51.196;6.204;2023-11-21T06:01:28;11.90;77.80
49132;DHT22;35149;51.196;6.204;2023-11-21T06:03:55;11.90;78.00
49132;DHT22;35149;51.196;6.204;2023-11-21T06:06:21;11.90;78.00
49132;DHT22;35149;51.196;6.204;2023-11-21T06:08:52;11.90;78.10
49132;DHT22;35149;51.196;6.204;2023-11-21T06:11:18;11.90;78.10
49132;DHT22;35149;51.196;6.204;2023-11-21T06:13:45;11.90;78.20
49132;DHT22;35149;51.196;6.204;2023-11-21T06:16:12;11.90;78.30
49132;DHT22;35149;51.196;6.204;2023-11-21T06:18:43;11.80;78.30
49132;DHT22;35149;51.196;6.204;2023-11-21T06:21:10;11.80;78.50
49132;DHT22;35149;51.196;6.204;2023-11-21T06:23:37;11.80;78.50
49132;DHT22;35149;51.196;6.204;2023-11-21T06:26:05;11.80;78.60
49132;DHT22;35149;51.196;6.204;2023-11-21T06:28:32;11.80;78.70
49132;DHT22;35149;51.196;6.204;2023-11-21T06:30:59;11.90;78.80
49132;DHT22;35149;51.196;6.204;2023-11-21T06:33:32;11.90;78.80
49132;DHT22;35149;51.196;6.204;2023-11-21T06:35:58;11.80;78.80
49132;DHT22;35149;51.196;6.204;2023-11-21T06:38:25;11.90;79.00
49132;DHT22;35149;51.196;6.204;2023-11-21T06:40:54;11.90;79.10
49132;DHT22;35149;51.196;6.204;2023-11-21T06:43:21;11.90;79.10
49132;DHT22;35149;51.196;6.204;2023-11-21T06:45:48;11.90;79.20
49132;DHT22;35149;51.196;6.204;2023-11-21T06:48:15;11.90;79.20
49132;DHT22;35149;51.196;6.204;2023-11-21T06:50:42;11.90;79.30
49132;DHT22;35149;51.196;6.204;2023-11-21T06:53:09;11.90;79.20
49132;DHT22;35149;51.196;6.204;2023-11-21T06:55:36;12.00;79.20
49132;DHT22;35149;51.196;6.204;2023-11-21T06:58:02;12.00;79.80
49132;DHT22;35149;51.196;6.204;2023-11-21T07:00:29;12.00;79.10
49132;DHT22;35149;51.196;6.204;2023-11-21T07:02:56;12.00;79.20
49132;DHT22;35149;51.196;6.204;2023-11-21T07:05:23;12.00;79.20
49132;DHT22;35149;51.196;6.204;2023-11-21T07:07:50;12.00;79.20
49132;DHT22;35149;51.196;6.204;2023-11-21T07:10:17;12.10;79.20
49132;DHT22;35149;51.196;6.204;2023-11-21T07:12:44;12.10;79.20
49132;DHT22;35149;51.196;6.204;2023-11-21T07:15:10;12.10;79.20
49132;DHT22;35149;51.196;6.204;2023-11-21T07:17:37;12.10;79.20
49132;DHT22;35149;51.196;6.204;2023-11-21T07:20:07;12.10;79.20
49132;DHT22;35149;51.196;6.204;2023-11-21T07:22:35;12.10;79.20
49132;DHT22;35149;51.196;6.204;2023-11-21T07:25:01;12.10;79.30
49132;DHT22;35149;51.196;6.204;2023-11-21T07:27:28;12.10;79.30
49132;DHT22;35149;51.196;6.204;2023-11-21T07:29:55;12.10;79.30
49132;DHT22;35149;51.196;6.204;2023-11-21T07:32:22;12.10;79.30
49132;DHT22;35149;51.196;6.204;2023-11-21T07:34:48;12.10;79.30
49132;DHT22;35149;51.196;6.204;2023-11-21T07:37:15;12.10;79.30
49132;DHT22;35149;51.196;6.204;2023-11-21T07:39:42;12.10;79.30
49132;DHT22;35149;51.196;6.204;2023-11-21T07:42:09;12.10;79.20
49132;DHT22;35149;51.196;6.204;2023-11-21T07:44:37;12.10;79.20
49132;DHT22;35149;51.196;6.204;2023-11-21T07:47:04;12.20;79.40
49132;DHT22;35149;51.196;6.204;2023-11-21T07:49:31;12.20;79.40
49132;DHT22;35149;51.196;6.204;2023-11-21T07:51:57;12.20;79.40
49132;DHT22;35149;51.196;6.204;2023-11-21T07:54:24;12.20;79.50
49132;DHT22;35149;51.196;6.204;2023-11-21T07:56:54;12.20;79.50
49132;DHT22;35149;51.196;6.204;2023-11-21T07:59:20;12.20;79.50
49132;DHT22;35149;51.196;6.204;2023-11-21T08:01:47;12.20;79.50
49132;DHT22;35149;51.196;6.204;2023-11-21T08:04:14;12.20;79.40
49132;DHT22;35149;51.196;6.204;2023-11-21T08:06:40;12.30;79.40
49132;DHT22;35149;51.196;6.204;2023-11-21T08:09:08;12.30;79.30
49132;DHT22;35149;51.196;6.204;2023-11-21T08:11:35;12.30;79.20
49132;DHT22;35149;51.196;6.204;2023-11-21T08:14:01;12.30;79.20
49132;DHT22;35149;51.196;6.204;2023-11-21T08:16:28;12.30;79.10
49132;DHT22;35149;51.196;6.204;2023-11-21T08:18:55;12.30;79.20
49132;DHT22;35149;51.196;6.204;2023-11-21T08:21:22;12.40;79.40
49132;DHT22;35149;51.196;6.204;2023-11-21T08:23:51;12.40;79.40
49132;DHT22;35149;51.196;6.204;2023-11-21T08:26:21;12.40;79.30
49132;DHT22;35149;51.196;6.204;2023-11-21T08:28:48;12.50;79.20
49132;DHT22;35149;51.196;6.204;2023-11-21T08:31:15;12.50;79.40
49132;DHT22;35149;51.196;6.204;2023-11-21T08:33:42;12.50;79.40
49132;DHT22;35149;51.196;6.204;2023-11-21T08:36:10;12.50;79.30
49132;DHT22;35149;51.196;6.204;2023-11-21T08:38:38;12.60;79.90
49132;DHT22;35149;51.196;6.204;2023-11-21T08:41:06;12.60;79.10
49132;DHT22;35149;51.196;6.204;2023-11-21T08:43:36;12.60;79.10
49132;DHT22;35149;51.196;6.204;2023-11-21T08:46:06;12.70;78.90
49132;DHT22;35149;51.196;6.204;2023-11-21T08:48:38;12.70;78.80
49132;DHT22;35149;51.196;6.204;2023-11-21T08:51:09;12.70;78.80
49132;DHT22;35149;51.196;6.204;2023-11-21T08:53:36;12.70;78.80
49132;DHT22;35149;51.196;6.204;2023-11-21T08:56:04;12.70;79.00
49132;DHT22;35149;51.196;6.204;2023-11-21T08:58:31;12.70;78.80
49132;DHT22;35149;51.196;6.204;2023-11-21T09:00:58;12.80;78.90
49132;DHT22;35149;51.196;6.204;2023-11-21T09:03:25;12.80;79.00
49132;DHT22;35149;51.196;6.204;2023-11-21T09:05:54;12.80;78.90
49132;DHT22;35149;51.196;6.204;2023-11-21T09:08:21;12.90;79.00
49132;DHT22;35149;51.196;6.204;2023-11-21T09:10:48;12.90;79.00
49132;DHT22;35149;51.196;6.204;2023-11-21T09:13:15;12.90;78.90
49132;DHT22;35149;51.196;6.204;2023-11-21T09:15:43;13.00;78.80
49132;DHT22;35149;51.196;6.204;2023-11-21T09:18:15;13.00;78.70
49132;DHT22;35149;51.196;6.204;2023-11-21T09:20:42;13.10;78.70
49132;DHT22;35149;51.196;6.204;2023-11-21T09:23:12;13.10;78.60
49132;DHT22;35149;51.196;6.204;2023-11-21T09:25:38;13.10;78.50
49132;DHT22;35149;51.196;6.204;2023-11-21T09:28:05;13.20;78.50
49132;DHT22;35149;51.196;6.204;2023-11-21T09:30:35;13.20;78.40
49132;DHT22;35149;51.196;6.204;2023-11-21T09:33:03;13.20;78.20
49132;DHT22;35149;51.196;6.204;2023-11-21T09:35:32;13.20;78.10
49132;DHT22;35149;51.196;6.204;2023-11-21T09:37:58;13.30;78.00
49132;DHT22;35149;51.196;6.204;2023-11-21T09:40:28;13.30;78.00
49132;DHT22;35149;51.196;6.204;2023-11-21T09:42:55;13.30;78.20
49132;DHT22;35149;51.196;6.204;2023-11-21T09:45:32;13.30;78.20
49132;DHT22;35149;51.196;6.204;2023-11-21T09:48:01;13.40;78.00
49132;DHT22;35149;51.196;6.204;2023-11-21T09:50:28;13.40;77.90
49132;DHT22;35149;51.196;6.204;2023-11-21T09:53:22;13.40;77.80
49132;DHT22;35149;51.196;6.204;2023-11-21T09:55:52;13.40;77.40
49132;DHT22;35149;51.196;6.204;2023-11-21T09:58:20;13.50;77.50
49132;DHT22;35149;51.196;6.204;2023-11-21T10:00:49;13.40;77.50
49132;DHT22;35149;51.196;6.204;2023-11-21T10:03:17;13.40;77.40
49132;DHT22;35149;51.196;6.204;2023-11-21T10:05:45;13.40;77.50
49132;DHT22;35149;51.196;6.204;2023-11-21T10:08:14;13.40;77.40
49132;DHT22;35149;51.196;6.204;2023-11-21T10:10:45;13.40;77.30
49132;DHT22;35149;51.196;6.204;2023-11-21T10:13:13;13.40;77.30
49132;DHT22;35149;51.196;6.204;2023-11-21T10:15:50;13.50;77.30
49132;DHT22;35149;51.196;6.204;2023-11-21T10:18:18;13.50;77.40
49132;DHT22;35149;51.196;6.204;2023-11-21T10:20:45;13.50;77.60
49132;DHT22;35149;51.196;6.204;2023-11-21T10:23:21;13.50;78.00
49132;DHT22;35149;51.196;6.204;2023-11-21T10:25:51;13.50;78.00
49132;DHT22;35149;51.196;6.204;2023-11-21T10:28:18;13.60;78.00
49132;DHT22;35149;51.196;6.204;2023-11-21T10:30:49;13.60;77.80
49132;DHT22;35149;51.196;6.204;2023-11-21T10:33:16;13.70;77.70
49132;DHT22;35149;51.196;6.204;2023-11-21T10:35:45;13.70;77.40
49132;DHT22;35149;51.196;6.204;2023-11-21T10:38:18;13.70;77.40
49132;DHT22;35149;51.196;6.204;2023-11-21T10:40:47;13.70;77.40
49132;DHT22;35149;51.196;6.204;2023-11-21T10:43:15;13.70;77.30
49132;DHT22;35149;51.196;6.204;2023-11-21T10:45:43;13.70;77.20
49132;DHT22;35149;51.196;6.204;2023-11-21T10:48:13;13.70;77.30
49132;DHT22;35149;51.196;6.204;2023-11-21T10:50:45;13.80;77.20
49132;DHT22;35149;51.196;6.204;2023-11-21T10:53:12;13.80;77.10
49132;DHT22;35149;51.196;6.204;2023-11-21T10:55:40;13.80;77.20
49132;DHT22;35149;51.196;6.204;2023-11-21T10:58:06;13.80;77.20
49132;DHT22;35149;51.196;6.204;2023-11-21T11:00:33;13.80;77.20
49132;DHT22;35149;51.196;6.204;2023-11-21T11:03:00;13.80;77.30
49132;DHT22;35149;51.196;6.204;2023-11-21T11:05:30;13.90;77.40
49132;DHT22;35149;51.196;6.204;2023-11-21T11:08:00;13.90;77.40
49132;DHT22;35149;51.196;6.204;2023-11-21T11:10:31;13.90;77.50
49132;DHT22;35149;51.196;6.204;2023-11-21T11:12:58;14.00;77.40
49132;DHT22;35149;51.196;6.204;2023-11-21T11:15:26;14.10;77.40
49132;DHT22;35149;51.196;6.204;2023-11-21T11:17:54;14.10;77.30
49132;DHT22;35149;51.196;6.204;2023-11-21T11:20:34;14.10;77.70
49132;DHT22;35149;51.196;6.204;2023-11-21T11:28:16;14.20;76.90
49132;DHT22;35149;51.196;6.204;2023-11-21T11:31:05;14.20;76.80
49132;DHT22;35149;51.196;6.204;2023-11-21T11:33:57;14.30;76.50
49132;DHT22;35149;51.196;6.204;2023-11-21T11:36:49;14.30;76.40
49132;DHT22;35149;51.196;6.204;2023-11-21T11:39:27;14.30;77.20
49132;DHT22;35149;51.196;6.204;2023-11-21T11:42:01;14.40;76.80
49132;DHT22;35149;51.196;6.204;2023-11-21T11:47:23;14.40;76.00
49132;DHT22;35149;51.196;6.204;2023-11-21T11:50:08;14.40;76.30
49132;DHT22;35149;51.196;6.204;2023-11-21T11:52:40;14.50;75.90
49132;DHT22;35149;51.196;6.204;2023-11-21T11:55:14;14.50;76.30
49132;DHT22;35149;51.196;6.204;2023-11-21T11:57:49;14.50;76.40
49132;DHT22;35149;51.196;6.204;2023-11-21T12:00:42;14.60;76.60
49132;DHT22;35149;51.196;6.204;2023-11-21T12:03:10;14.60;76.20
49132;DHT22;35149;51.196;6.204;2023-11-21T12:05:37;14.70;76.40
49132;DHT22;35149;51.196;6.204;2023-11-21T12:08:11;14.70;76.30
49132;DHT22;35149;51.196;6.204;2023-11-21T12:10:39;14.80;75.90
49132;DHT22;35149;51.196;6.204;2023-11-21T12:13:10;14.80;75.80
49132;DHT22;35149;51.196;6.204;2023-11-21T12:15:39;14.80;75.60
49132;DHT22;35149;51.196;6.204;2023-11-21T12:18:07;14.80;75.40
49132;DHT22;35149;51.196;6.204;2023-11-21T12:20:34;14.80;75.20
49132;DHT22;35149;51.196;6.204;2023-11-21T12:23:06;14.80;75.80
49132;DHT22;35149;51.196;6.204;2023-11-21T12:25:33;14.80;75.20
49132;DHT22;35149;51.196;6.204;2023-11-21T12:28:01;14.80;75.20
49132;DHT22;35149;51.196;6.204;2023-11-21T12:30:34;14.80;75.10
49132;DHT22;35149;51.196;6.204;2023-11-21T12:33:05;14.80;75.40
49132;DHT22;35149;51.196;6.204;2023-11-21T12:35:34;14.80;75.40
49132;DHT22;35149;51.196;6.204;2023-11-21T12:38:03;14.70;75.30
49132;DHT22;35149;51.196;6.204;2023-11-21T12:40:31;14.70;75.50
49132;DHT22;35149;51.196;6.204;2023-11-21T12:42:59;14.70;75.70
49132;DHT22;35149;51.196;6.204;2023-11-21T12:45:28;14.70;75.70
49132;DHT22;35149;51.196;6.204;2023-11-21T12:47:57;14.70;75.70
49132;DHT22;35149;51.196;6.204;2023-11-21T12:50:28;14.60;75.80
49132;DHT22;35149;51.196;6.204;2023-11-21T12:53:03;14.60;75.80
49132;DHT22;35149;51.196;6.204;2023-11-21T12:55:32;14.60;75.70
49132;DHT22;35149;51.196;6.204;2023-11-21T12:58:01;14.60;75.70
49132;DHT22;35149;51.196;6.204;2023-11-21T13:00:42;14.60;75.80
49132;DHT22;35149;51.196;6.204;2023-11-21T13:03:11;14.60;76.00
49132;DHT22;35149;51.196;6.204;2023-11-21T13:05:40;14.60;75.90
49132;DHT22;35149;51.196;6.204;2023-11-21T13:08:13;14.50;75.80
49132;DHT22;35149;51.196;6.204;2023-11-21T13:10:41;14.40;75.80
49132;DHT22;35149;51.196;6.204;2023-11-21T13:13:11;14.40;75.90
49132;DHT22;35149;51.196;6.204;2023-11-21T13:15:59;14.40;76.60
49132;DHT22;35149;51.196;6.204;2023-11-21T13:18:32;14.40;76.00
49132;DHT22;35149;51.196;6.204;2023-11-21T13:21:01;14.30;76.00
49132;DHT22;35149;51.196;6.204;2023-11-21T13:23:34;14.30;76.30
49132;DHT22;35149;51.196;6.204;2023-11-21T13:26:03;14.20;76.40
49132;DHT22;35149;51.196;6.204;2023-11-21T13:28:33;14.20;76.40
49132;DHT22;35149;51.196;6.204;2023-11-21T13:31:02;14.20;76.60
49132;DHT22;35149;51.196;6.204;2023-11-21T13:33:36;14.10;76.80
49132;DHT22;35149;51.196;6.204;2023-11-21T13:36:07;14.20;77.10
49132;DHT22;35149;51.196;6.204;2023-11-21T13:38:35;14.20;77.20
49132;DHT22;35149;51.196;6.204;2023-11-21T13:41:04;14.20;77.40
49132;DHT22;35149;51.196;6.204;2023-11-21T13:43:34;14.20;77.60
49132;DHT22;35149;51.196;6.204;2023-11-21T13:46:00;14.20;77.40
49132;DHT22;35149;51.196;6.204;2023-11-21T13:48:39;14.20;77.20
49132;DHT22;35149;51.196;6.204;2023-11-21T13:51:10;14.20;77.30
49132;DHT22;35149;51.196;6.204;2023-11-21T13:53:47;14.30;77.50
49132;DHT22;35149;51.196;6.204;2023-11-21T13:56:16;14.30;77.50
49132;DHT22;35149;51.196;6.204;2023-11-21T13:58:47;14.30;77.60
49132;DHT22;35149;51.196;6.204;2023-11-21T14:01:22;14.40;77.70
49132;DHT22;35149;51.196;6.204;2023-11-21T14:04:03;14.50;77.50
49132;DHT22;35149;51.196;6.204;2023-11-21T14:06:46;14.50;76.90
49132;DHT22;35149;51.196;6.204;2023-11-21T14:09:18;14.60;76.80
49132;DHT22;35149;51.196;6.204;2023-11-21T14:11:54;14.60;76.70
49132;DHT22;35149;51.196;6.204;2023-11-21T14:14:27;14.60;76.40
49132;DHT22;35149;51.196;6.204;2023-11-21T14:16:54;14.60;76.30
49132;DHT22;35149;51.196;6.204;2023-11-21T14:19:25;14.60;76.10
49132;DHT22;35149;51.196;6.204;2023-11-21T14:21:59;14.60;75.90
49132;DHT22;35149;51.196;6.204;2023-11-21T14:24:27;14.60;75.80
49132;DHT22;35149;51.196;6.204;2023-11-21T14:26:56;14.60;75.80
49132;DHT22;35149;51.196;6.204;2023-11-21T14:29:22;14.60;75.90
49132;DHT22;35149;51.196;6.204;2023-11-21T14:31:50;14.60;76.00
49132;DHT22;35149;51.196;6.204;2023-11-21T14:34:19;14.50;76.00
49132;DHT22;35149;51.196;6.204;2023-11-21T14:36:49;14.50;76.00
49132;DHT22;35149;51.196;6.204;2023-11-21T14:39:17;14.50;76.00
49132;DHT22;35149;51.196;6.204;2023-11-21T14:41:50;14.50;76.00
49132;DHT22;35149;51.196;6.204;2023-11-21T14:44:18;14.40;76.00
49132;DHT22;35149;51.196;6.204;2023-11-21T14:46:45;14.50;76.10
49132;DHT22;35149;51.196;6.204;2023-11-21T14:49:17;14.40;76.00
49132;DHT22;35149;51.196;6.204;2023-11-21T14:51:48;14.40;76.00
49132;DHT22;35149;51.196;6.204;2023-11-21T14:54:29;14.40;76.10
49132;DHT22;35149;51.196;6.204;2023-11-21T14:57:13;14.40;76.00
49132;DHT22;35149;51.196;6.204;2023-11-21T14:59:47;14.30;75.90
49132;DHT22;35149;51.196;6.204;2023-11-21T15:02:23;14.30;76.00
49132;DHT22;35149;51.196;6.204;2023-11-21T15:05:17;14.20;75.90
49132;DHT22;35149;51.196;6.204;2023-11-21T15:07:46;14.20;75.90
49132;DHT22;35149;51.196;6.204;2023-11-21T15:10:16;14.20;76.00
49132;DHT22;35149;51.196;6.204;2023-11-21T15:12:43;14.10;75.80
49132;DHT22;35149;51.196;6.204;2023-11-21T15:15:11;14.10;75.90
49132;DHT22;35149;51.196;6.204;2023-11-21T15:17:41;14.00;76.10
49132;DHT22;35149;51.196;6.204;2023-11-21T15:20:13;14.00;76.20
49132;DHT22;35149;51.196;6.204;2023-11-21T15:22:45;14.00;76.40
49132;DHT22;35149;51.196;6.204;2023-11-21T15:25:12;13.90;76.60
49132;DHT22;35149;51.196;6.204;2023-11-21T15:27:44;13.90;76.80
49132;DHT22;35149;51.196;6.204;2023-11-21T15:30:11;13.80;76.80
49132;DHT22;35149;51.196;6.204;2023-11-21T15:32:38;13.80;77.00
49132;DHT22;35149;51.196;6.204;2023-11-21T15:35:08;13.80;77.10
49132;DHT22;35149;51.196;6.204;2023-11-21T15:37:38;13.80;77.30
49132;DHT22;35149;51.196;6.204;2023-11-21T15:40:06;13.80;77.40
49132;DHT22;35149;51.196;6.204;2023-11-21T15:42:37;13.80;77.50
49132;DHT22;35149;51.196;6.204;2023-11-21T15:45:05;13.70;77.40
49132;DHT22;35149;51.196;6.204;2023-11-21T15:47:34;13.70;77.40
49132;DHT22;35149;51.196;6.204;2023-11-21T15:50:01;13.70;77.40